sensor_id;sensor_type;location;lat;lon;timestamp;pressure;altitude;pressure_sealevel;temperature;humidity
48530;BME280;34927;37.302;-121.982;2023-01-26T00:00:52;101881.0;;;23.00;28.26
48530;BME280;34927;37.302;-121.982;2023-01-26T00:01:56;101882.0;;;22.97;28.32
48530;BME280;34927;37.302;-121.982;2023-01-26T00:03:02;101882.0;;;22.93;28.33
48530;BME280;34927;37.302;-121.982;2023-01-26T00:04:06;101877.0;;;22.96;28.46
48530;BME280;34927;37.302;-121.982;2023-01-26T00:05:12;101878.0;;;22.94;28.48
48530;BME280;34927;37.302;-121.982;2023-01-26T00:06:18;101880.0;;;22.96;28.59
48530;BME280;34927;37.302;-121.982;2023-01-26T00:07:21;101880.0;;;22.97;28.48
48530;BME280;34927;37.302;-121.982;2023-01-26T00:08:27;101880.0;;;22.97;28.41
48530;BME280;34927;37.302;-121.982;2023-01-26T00:09:32;101882.0;;;22.97;28.41
48530;BME280;34927;37.302;-121.982;2023-01-26T00:10:36;101878.0;;;23.02;28.42
48530;BME280;34927;37.302;-121.982;2023-01-26T00:11:42;101878.0;;;23.05;28.46
48530;BME280;34927;37.302;-121.982;2023-01-26T00:12:46;101877.0;;;22.99;28.49
48530;BME280;34927;37.302;-121.982;2023-01-26T00:13:52;101874.0;;;23.00;28.53
48530;BME280;34927;37.302;-121.982;2023-01-26T00:14:56;101877.0;;;23.01;28.72
48530;BME280;34927;37.302;-121.982;2023-01-26T00:16:02;101879.0;;;23.09;28.41
48530;BME280;34927;37.302;-121.982;2023-01-26T00:17:07;101881.0;;;23.09;28.47
48530;BME280;34927;37.302;-121.982;2023-01-26T00:18:12;101880.0;;;23.07;28.40
48530;BME280;34927;37.302;-121.982;2023-01-26T00:19:17;101882.0;;;23.14;28.54
48530;BME280;34927;37.302;-121.982;2023-01-26T00:20:22;101881.0;;;23.19;28.39
48530;BME280;34927;37.302;-121.982;2023-01-26T00:21:26;101878.0;;;23.16;28.41
48530;BME280;34927;37.302;-121.982;2023-01-26T00:22:32;101879.0;;;23.25;28.29
48530;BME280;34927;37.302;-121.982;2023-01-26T00:23:36;101880.0;;;23.15;28.48
48530;BME280;34927;37.302;-121.982;2023-01-26T00:24:41;101879.0;;;23.22;28.46
48530;BME280;34927;37.302;-121.982;2023-01-26T00:25:46;101881.0;;;23.24;28.51
48530;BME280;34927;37.302;-121.982;2023-01-26T00:26:51;101882.0;;;23.33;28.31
48530;BME280;34927;37.302;-121.982;2023-01-26T00:27:57;101878.0;;;23.27;28.36
48530;BME280;34927;37.302;-121.982;2023-01-26T00:29:01;101873.0;;;23.26;28.46
48530;BME280;34927;37.302;-121.982;2023-01-26T00:30:08;101873.0;;;23.29;28.38
48530;BME280;34927;37.302;-121.982;2023-01-26T00:31:14;101876.0;;;23.28;28.39
48530;BME280;34927;37.302;-121.982;2023-01-26T00:32:17;101876.0;;;23.30;28.43
48530;BME280;34927;37.302;-121.982;2023-01-26T00:33:21;101872.0;;;23.22;28.49
48530;BME280;34927;37.302;-121.982;2023-01-26T00:34:27;101873.0;;;23.21;28.52
48530;BME280;34927;37.302;-121.982;2023-01-26T00:35:31;101870.0;;;23.23;28.51
48530;BME280;34927;37.302;-121.982;2023-01-26T00:36:37;101870.0;;;23.21;28.52
48530;BME280;34927;37.302;-121.982;2023-01-26T00:37:42;101870.0;;;23.23;28.60
48530;BME280;34927;37.302;-121.982;2023-01-26T00:38:47;101871.0;;;23.20;28.56
48530;BME280;34927;37.302;-121.982;2023-01-26T00:39:51;101870.0;;;23.19;28.56
48530;BME280;34927;37.302;-121.982;2023-01-26T00:40:57;101871.0;;;23.20;28.60
48530;BME280;34927;37.302;-121.982;2023-01-26T00:42:01;101873.0;;;23.19;28.61
48530;BME280;34927;37.302;-121.982;2023-01-26T00:43:07;101873.0;;;23.17;28.77
48530;BME280;34927;37.302;-121.982;2023-01-26T00:44:11;101872.0;;;23.22;28.73
48530;BME280;34927;37.302;-121.982;2023-01-26T00:45:17;101873.0;;;23.20;28.67
48530;BME280;34927;37.302;-121.982;2023-01-26T00:46:21;101874.0;;;23.17;28.76
48530;BME280;34927;37.302;-121.982;2023-01-26T00:47:27;101874.0;;;23.18;28.73
48530;BME280;34927;37.302;-121.982;2023-01-26T00:48:31;101873.0;;;23.16;28.86
48530;BME280;34927;37.302;-121.982;2023-01-26T00:49:37;101872.0;;;23.18;28.74
48530;BME280;34927;37.302;-121.982;2023-01-26T00:50:42;101871.0;;;23.23;28.68
48530;BME280;34927;37.302;-121.982;2023-01-26T00:51:47;101870.0;;;23.24;28.62
48530;BME280;34927;37.302;-121.982;2023-01-26T00:52:51;101871.0;;;23.20;28.73
48530;BME280;34927;37.302;-121.982;2023-01-26T00:53:57;101871.0;;;23.16;28.92
48530;BME280;34927;37.302;-121.982;2023-01-26T00:55:01;101872.0;;;23.19;28.77
48530;BME280;34927;37.302;-121.982;2023-01-26T00:56:07;101872.0;;;23.19;28.77
48530;BME280;34927;37.302;-121.982;2023-01-26T00:57:11;101875.0;;;23.27;28.76
48530;BME280;34927;37.302;-121.982;2023-01-26T00:58:18;101876.0;;;23.23;28.85
48530;BME280;34927;37.302;-121.982;2023-01-26T00:59:22;101879.0;;;23.22;28.83
48530;BME280;34927;37.302;-121.982;2023-01-26T01:00:28;101877.0;;;23.19;28.88
48530;BME280;34927;37.302;-121.982;2023-01-26T01:01:31;101876.0;;;23.19;28.88
48530;BME280;34927;37.302;-121.982;2023-01-26T01:02:37;101876.0;;;23.16;28.87
48530;BME280;34927;37.302;-121.982;2023-01-26T01:03:42;101872.0;;;23.16;28.88
48530;BME280;34927;37.302;-121.982;2023-01-26T01:04:46;101871.0;;;23.10;28.88
48530;BME280;34927;37.302;-121.982;2023-01-26T01:05:52;101874.0;;;23.07;28.92
48530;BME280;34927;37.302;-121.982;2023-01-26T01:06:57;101872.0;;;23.06;28.96
48530;BME280;34927;37.302;-121.982;2023-01-26T01:08:02;101872.0;;;23.00;29.03
48530;BME280;34927;37.302;-121.982;2023-01-26T01:09:07;101869.0;;;22.97;29.11
48530;BME280;34927;37.302;-121.982;2023-01-26T01:10:12;101869.0;;;22.93;29.19
48530;BME280;34927;37.302;-121.982;2023-01-26T01:11:16;101872.0;;;22.93;29.22
48530;BME280;34927;37.302;-121.982;2023-01-26T01:12:22;101870.0;;;22.94;29.25
48530;BME280;34927;37.302;-121.982;2023-01-26T01:13:26;101873.0;;;22.85;29.31
48530;BME280;34927;37.302;-121.982;2023-01-26T01:14:32;101873.0;;;22.88;29.29
48530;BME280;34927;37.302;-121.982;2023-01-26T01:15:38;101875.0;;;22.89;29.36
48530;BME280;34927;37.302;-121.982;2023-01-26T01:16:42;101874.0;;;22.81;29.41
48530;BME280;34927;37.302;-121.982;2023-01-26T01:17:47;101874.0;;;22.83;29.36
48530;BME280;34927;37.302;-121.982;2023-01-26T01:18:52;101875.0;;;22.83;29.41
48530;BME280;34927;37.302;-121.982;2023-01-26T01:19:57;101877.0;;;22.81;29.42
48530;BME280;34927;37.302;-121.982;2023-01-26T01:21:05;101878.0;;;22.80;29.43
48530;BME280;34927;37.302;-121.982;2023-01-26T01:22:12;101876.0;;;22.77;29.43
48530;BME280;34927;37.302;-121.982;2023-01-26T01:23:16;101873.0;;;22.77;29.46
48530;BME280;34927;37.302;-121.982;2023-01-26T01:24:21;101874.0;;;22.77;29.47
48530;BME280;34927;37.302;-121.982;2023-01-26T01:25:26;101877.0;;;22.72;29.53
48530;BME280;34927;37.302;-121.982;2023-01-26T01:26:32;101877.0;;;22.73;29.52
48530;BME280;34927;37.302;-121.982;2023-01-26T01:27:37;101877.0;;;22.73;29.54
48530;BME280;34927;37.302;-121.982;2023-01-26T01:28:42;101878.0;;;22.73;29.53
48530;BME280;34927;37.302;-121.982;2023-01-26T01:29:46;101873.0;;;22.68;29.56
48530;BME280;34927;37.302;-121.982;2023-01-26T01:30:52;101872.0;;;22.71;29.59
48530;BME280;34927;37.302;-121.982;2023-01-26T01:31:56;101871.0;;;22.68;29.58
48530;BME280;34927;37.302;-121.982;2023-01-26T01:33:02;101872.0;;;22.69;29.58
48530;BME280;34927;37.302;-121.982;2023-01-26T01:34:06;101874.0;;;22.62;29.61
48530;BME280;34927;37.302;-121.982;2023-01-26T01:35:12;101876.0;;;22.63;29.62
48530;BME280;34927;37.302;-121.982;2023-01-26T01:36:16;101876.0;;;22.62;29.62
48530;BME280;34927;37.302;-121.982;2023-01-26T01:37:21;101874.0;;;22.57;29.66
48530;BME280;34927;37.302;-121.982;2023-01-26T01:38:27;101875.0;;;22.59;29.65
48530;BME280;34927;37.302;-121.982;2023-01-26T01:39:31;101874.0;;;22.57;29.69
48530;BME280;34927;37.302;-121.982;2023-01-26T01:40:42;101872.0;;;22.58;29.70
48530;BME280;34927;37.302;-121.982;2023-01-26T01:41:46;101870.0;;;22.54;29.76
48530;BME280;34927;37.302;-121.982;2023-01-26T01:42:52;101877.0;;;22.55;29.73
48530;BME280;34927;37.302;-121.982;2023-01-26T01:45:38;101877.0;;;22.51;29.76
48530;BME280;34927;37.302;-121.982;2023-01-26T01:46:46;101882.0;;;22.47;29.85
48530;BME280;34927;37.302;-121.982;2023-01-26T01:47:52;101884.0;;;22.41;29.99
48530;BME280;34927;37.302;-121.982;2023-01-26T01:48:58;101886.0;;;22.35;30.05
48530;BME280;34927;37.302;-121.982;2023-01-26T01:50:14;101888.0;;;22.35;30.06
48530;BME280;34927;37.302;-121.982;2023-01-26T01:51:30;101891.0;;;22.32;30.12
48530;BME280;34927;37.302;-121.982;2023-01-26T01:52:37;101892.0;;;22.37;30.03
48530;BME280;34927;37.302;-121.982;2023-01-26T01:53:46;101892.0;;;22.39;29.99
48530;BME280;34927;37.302;-121.982;2023-01-26T01:54:55;101892.0;;;22.38;29.99
48530;BME280;34927;37.302;-121.982;2023-01-26T01:56:05;101895.0;;;22.37;29.99
48530;BME280;34927;37.302;-121.982;2023-01-26T01:57:16;101898.0;;;22.37;30.05
48530;BME280;34927;37.302;-121.982;2023-01-26T01:58:22;101897.0;;;22.28;30.16
48530;BME280;34927;37.302;-121.982;2023-01-26T01:59:27;101897.0;;;22.26;30.18
48530;BME280;34927;37.302;-121.982;2023-01-26T02:00:32;101898.0;;;22.26;30.21
48530;BME280;34927;37.302;-121.982;2023-01-26T02:01:37;101896.0;;;22.32;30.07
48530;BME280;34927;37.302;-121.982;2023-01-26T02:02:44;101897.0;;;22.28;30.17
48530;BME280;34927;37.302;-121.982;2023-01-26T02:03:48;101897.0;;;22.35;30.07
48530;BME280;34927;37.302;-121.982;2023-01-26T02:04:59;101897.0;;;22.38;30.21
48530;BME280;34927;37.302;-121.982;2023-01-26T02:06:11;101898.0;;;22.55;30.27
48530;BME280;34927;37.302;-121.982;2023-01-26T02:07:17;101898.0;;;22.78;29.97
48530;BME280;34927;37.302;-121.982;2023-01-26T02:08:25;101902.0;;;23.11;29.63
48530;BME280;34927;37.302;-121.982;2023-01-26T02:09:34;101899.0;;;23.42;29.29
48530;BME280;34927;37.302;-121.982;2023-01-26T02:10:43;101894.0;;;23.70;28.91
48530;BME280;34927;37.302;-121.982;2023-01-26T02:11:52;101895.0;;;24.04;28.59
48530;BME280;34927;37.302;-121.982;2023-01-26T02:12:58;101897.0;;;24.25;28.42
48530;BME280;34927;37.302;-121.982;2023-01-26T02:14:04;101900.0;;;24.27;28.35
48530;BME280;34927;37.302;-121.982;2023-01-26T02:15:13;101903.0;;;24.24;28.34
48530;BME280;34927;37.302;-121.982;2023-01-26T02:16:16;101904.0;;;24.13;28.48
48530;BME280;34927;37.302;-121.982;2023-01-26T02:17:22;101901.0;;;23.92;28.81
48530;BME280;34927;37.302;-121.982;2023-01-26T02:18:27;101899.0;;;23.84;28.79
48530;BME280;34927;37.302;-121.982;2023-01-26T02:19:38;101904.0;;;23.64;29.18
48530;BME280;34927;37.302;-121.982;2023-01-26T02:20:49;101907.0;;;23.45;29.25
48530;BME280;34927;37.302;-121.982;2023-01-26T02:22:01;101908.0;;;23.40;29.18
48530;BME280;34927;37.302;-121.982;2023-01-26T02:23:22;101913.0;;;23.34;29.08
48530;BME280;34927;37.302;-121.982;2023-01-26T02:24:30;101913.0;;;23.28;29.16
48530;BME280;34927;37.302;-121.982;2023-01-26T02:25:42;101912.0;;;23.17;29.22
48530;BME280;34927;37.302;-121.982;2023-01-26T02:26:47;101913.0;;;23.19;29.07
48530;BME280;34927;37.302;-121.982;2023-01-26T02:27:51;101918.0;;;23.40;28.92
48530;BME280;34927;37.302;-121.982;2023-01-26T02:28:57;101914.0;;;23.64;28.58
48530;BME280;34927;37.302;-121.982;2023-01-26T02:30:02;101912.0;;;23.92;28.21
48530;BME280;34927;37.302;-121.982;2023-01-26T02:31:07;101910.0;;;24.09;27.91
48530;BME280;34927;37.302;-121.982;2023-01-26T02:32:11;101908.0;;;24.32;27.59
48530;BME280;34927;37.302;-121.982;2023-01-26T02:33:18;101911.0;;;24.49;27.31
48530;BME280;34927;37.302;-121.982;2023-01-26T02:34:22;101913.0;;;24.40;27.44
48530;BME280;34927;37.302;-121.982;2023-01-26T02:35:27;101914.0;;;24.31;27.44
48530;BME280;34927;37.302;-121.982;2023-01-26T02:36:32;101916.0;;;24.24;27.70
48530;BME280;34927;37.302;-121.982;2023-01-26T02:37:38;101916.0;;;24.04;27.90
48530;BME280;34927;37.302;-121.982;2023-01-26T02:38:48;101915.0;;;23.97;27.79
48530;BME280;34927;37.302;-121.982;2023-01-26T02:40:00;101914.0;;;23.84;27.84
48530;BME280;34927;37.302;-121.982;2023-01-26T02:41:08;101915.0;;;23.72;27.95
48530;BME280;34927;37.302;-121.982;2023-01-26T02:42:12;101917.0;;;23.64;28.22
48530;BME280;34927;37.302;-121.982;2023-01-26T02:43:19;101920.0;;;23.50;28.51
48530;BME280;34927;37.302;-121.982;2023-01-26T02:44:22;101924.0;;;23.34;28.79
48530;BME280;34927;37.302;-121.982;2023-01-26T02:45:27;101926.0;;;23.21;28.88
48530;BME280;34927;37.302;-121.982;2023-01-26T02:46:31;101928.0;;;23.21;28.96
48530;BME280;34927;37.302;-121.982;2023-01-26T02:47:40;101924.0;;;23.16;29.16
48530;BME280;34927;37.302;-121.982;2023-01-26T02:48:47;101919.0;;;23.12;29.39
48530;BME280;34927;37.302;-121.982;2023-01-26T02:49:51;101922.0;;;23.08;29.44
48530;BME280;34927;37.302;-121.982;2023-01-26T02:50:57;101927.0;;;23.01;29.51
48530;BME280;34927;37.302;-121.982;2023-01-26T02:52:03;101931.0;;;22.99;29.64
48530;BME280;34927;37.302;-121.982;2023-01-26T02:53:07;101933.0;;;23.08;29.39
48530;BME280;34927;37.302;-121.982;2023-01-26T02:54:12;101930.0;;;23.27;29.50
48530;BME280;34927;37.302;-121.982;2023-01-26T02:55:17;101932.0;;;23.56;29.50
48530;BME280;34927;37.302;-121.982;2023-01-26T02:56:22;101929.0;;;23.88;29.28
48530;BME280;34927;37.302;-121.982;2023-01-26T02:57:27;101930.0;;;24.11;29.09
48530;BME280;34927;37.302;-121.982;2023-01-26T02:58:34;101934.0;;;24.11;29.17
48530;BME280;34927;37.302;-121.982;2023-01-26T02:59:38;101936.0;;;24.12;29.09
48530;BME280;34927;37.302;-121.982;2023-01-26T03:00:43;101933.0;;;24.02;29.24
48530;BME280;34927;37.302;-121.982;2023-01-26T03:01:50;101931.0;;;23.90;29.41
48530;BME280;34927;37.302;-121.982;2023-01-26T03:02:59;101932.0;;;23.84;29.57
48530;BME280;34927;37.302;-121.982;2023-01-26T03:04:07;101935.0;;;23.64;29.86
48530;BME280;34927;37.302;-121.982;2023-01-26T03:05:12;101934.0;;;23.62;29.87
48530;BME280;34927;37.302;-121.982;2023-01-26T03:06:17;101934.0;;;23.46;29.96
48530;BME280;34927;37.302;-121.982;2023-01-26T03:07:23;101932.0;;;23.32;30.41
48530;BME280;34927;37.302;-121.982;2023-01-26T03:08:27;101932.0;;;23.24;30.44
48530;BME280;34927;37.302;-121.982;2023-01-26T03:09:32;101932.0;;;23.20;30.49
48530;BME280;34927;37.302;-121.982;2023-01-26T03:10:37;101933.0;;;23.17;30.58
48530;BME280;34927;37.302;-121.982;2023-01-26T03:11:43;101935.0;;;23.13;30.64
48530;BME280;34927;37.302;-121.982;2023-01-26T03:12:47;101936.0;;;23.14;30.72
48530;BME280;34927;37.302;-121.982;2023-01-26T03:13:52;101942.0;;;23.13;30.66
48530;BME280;34927;37.302;-121.982;2023-01-26T03:14:57;101942.0;;;23.08;30.74
48530;BME280;34927;37.302;-121.982;2023-01-26T03:16:05;101942.0;;;23.02;30.78
48530;BME280;34927;37.302;-121.982;2023-01-26T03:17:12;101942.0;;;22.97;30.80
48530;BME280;34927;37.302;-121.982;2023-01-26T03:18:20;101942.0;;;22.90;31.00
48530;BME280;34927;37.302;-121.982;2023-01-26T03:19:27;101942.0;;;22.85;31.13
48530;BME280;34927;37.302;-121.982;2023-01-26T03:20:31;101945.0;;;22.88;30.85
48530;BME280;34927;37.302;-121.982;2023-01-26T03:21:37;101948.0;;;22.86;31.10
48530;BME280;34927;37.302;-121.982;2023-01-26T03:22:43;101951.0;;;22.87;30.74
48530;BME280;34927;37.302;-121.982;2023-01-26T03:23:47;101949.0;;;22.83;31.12
48530;BME280;34927;37.302;-121.982;2023-01-26T03:24:53;101949.0;;;22.81;31.12
48530;BME280;34927;37.302;-121.982;2023-01-26T03:25:58;101949.0;;;22.79;31.11
48530;BME280;34927;37.302;-121.982;2023-01-26T03:27:03;101953.0;;;22.82;31.06
48530;BME280;34927;37.302;-121.982;2023-01-26T03:28:08;101953.0;;;22.87;31.10
48530;BME280;34927;37.302;-121.982;2023-01-26T03:29:12;101956.0;;;22.98;31.11
48530;BME280;34927;37.302;-121.982;2023-01-26T03:30:18;101959.0;;;23.21;30.71
48530;BME280;34927;37.302;-121.982;2023-01-26T03:31:22;101954.0;;;23.50;30.26
48530;BME280;34927;37.302;-121.982;2023-01-26T03:32:27;101951.0;;;23.81;29.84
48530;BME280;34927;37.302;-121.982;2023-01-26T03:33:33;101947.0;;;23.90;29.58
48530;BME280;34927;37.302;-121.982;2023-01-26T03:34:37;101951.0;;;23.83;29.59
48530;BME280;34927;37.302;-121.982;2023-01-26T03:35:43;101953.0;;;23.76;29.68
48530;BME280;34927;37.302;-121.982;2023-01-26T03:36:48;101955.0;;;23.57;29.92
48530;BME280;34927;37.302;-121.982;2023-01-26T03:37:51;101955.0;;;23.56;29.95
48530;BME280;34927;37.302;-121.982;2023-01-26T03:38:57;101954.0;;;23.45;30.10
48530;BME280;34927;37.302;-121.982;2023-01-26T03:40:03;101955.0;;;23.33;30.18
48530;BME280;34927;37.302;-121.982;2023-01-26T03:41:07;101959.0;;;23.16;30.35
48530;BME280;34927;37.302;-121.982;2023-01-26T03:42:13;101958.0;;;23.08;30.58
48530;BME280;34927;37.302;-121.982;2023-01-26T03:43:17;101959.0;;;23.01;30.55
48530;BME280;34927;37.302;-121.982;2023-01-26T03:44:21;101955.0;;;22.86;30.69
48530;BME280;34927;37.302;-121.982;2023-01-26T03:45:26;101956.0;;;22.85;30.72
48530;BME280;34927;37.302;-121.982;2023-01-26T03:46:32;101955.0;;;22.75;30.92
48530;BME280;34927;37.302;-121.982;2023-01-26T03:47:37;101958.0;;;22.76;30.87
48530;BME280;34927;37.302;-121.982;2023-01-26T03:48:41;101956.0;;;22.78;30.86
48530;BME280;34927;37.302;-121.982;2023-01-26T03:49:47;101955.0;;;22.77;30.82
48530;BME280;34927;37.302;-121.982;2023-01-26T03:50:51;101953.0;;;22.70;30.87
48530;BME280;34927;37.302;-121.982;2023-01-26T03:51:57;101952.0;;;22.63;30.96
48530;BME280;34927;37.302;-121.982;2023-01-26T03:53:02;101954.0;;;22.61;30.97
48530;BME280;34927;37.302;-121.982;2023-01-26T03:54:09;101953.0;;;22.61;30.99
48530;BME280;34927;37.302;-121.982;2023-01-26T03:55:13;101951.0;;;22.62;30.96
48530;BME280;34927;37.302;-121.982;2023-01-26T03:56:17;101954.0;;;22.71;30.80
48530;BME280;34927;37.302;-121.982;2023-01-26T03:57:22;101956.0;;;22.89;30.69
48530;BME280;34927;37.302;-121.982;2023-01-26T03:58:27;101961.0;;;23.19;30.30
48530;BME280;34927;37.302;-121.982;2023-01-26T03:59:32;101959.0;;;23.48;29.86
48530;BME280;34927;37.302;-121.982;2023-01-26T04:00:37;101961.0;;;23.73;29.48
48530;BME280;34927;37.302;-121.982;2023-01-26T04:01:44;101964.0;;;23.87;29.34
48530;BME280;34927;37.302;-121.982;2023-01-26T04:02:47;101966.0;;;23.85;29.30
48530;BME280;34927;37.302;-121.982;2023-01-26T04:03:54;101965.0;;;23.76;29.35
48530;BME280;34927;37.302;-121.982;2023-01-26T04:05:02;101962.0;;;23.72;29.52
48530;BME280;34927;37.302;-121.982;2023-01-26T04:06:07;101962.0;;;23.53;29.60
48530;BME280;34927;37.302;-121.982;2023-01-26T04:07:12;101960.0;;;23.38;29.70
48530;BME280;34927;37.302;-121.982;2023-01-26T04:08:17;101964.0;;;23.30;29.64
48530;BME280;34927;37.302;-121.982;2023-01-26T04:09:22;101967.0;;;23.22;29.88
48530;BME280;34927;37.302;-121.982;2023-01-26T04:10:27;101969.0;;;23.01;30.05
48530;BME280;34927;37.302;-121.982;2023-01-26T04:11:32;101966.0;;;22.93;30.20
48530;BME280;34927;37.302;-121.982;2023-01-26T04:12:36;101963.0;;;22.82;30.29
48530;BME280;34927;37.302;-121.982;2023-01-26T04:13:41;101960.0;;;22.81;30.41
48530;BME280;34927;37.302;-121.982;2023-01-26T04:14:46;101958.0;;;22.71;30.47
48530;BME280;34927;37.302;-121.982;2023-01-26T04:15:52;101959.0;;;22.62;30.55
48530;BME280;34927;37.302;-121.982;2023-01-26T04:16:57;101960.0;;;22.57;30.66
48530;BME280;34927;37.302;-121.982;2023-01-26T04:18:05;101958.0;;;22.52;30.77
48530;BME280;34927;37.302;-121.982;2023-01-26T04:19:12;101956.0;;;22.43;30.88
48530;BME280;34927;37.302;-121.982;2023-01-26T04:20:17;101957.0;;;22.35;31.05
48530;BME280;34927;37.302;-121.982;2023-01-26T04:21:22;101958.0;;;22.40;31.00
48530;BME280;34927;37.302;-121.982;2023-01-26T04:22:27;101960.0;;;22.35;30.94
48530;BME280;34927;37.302;-121.982;2023-01-26T04:23:31;101957.0;;;22.41;30.86
48530;BME280;34927;37.302;-121.982;2023-01-26T04:24:37;101959.0;;;22.64;30.66
48530;BME280;34927;37.302;-121.982;2023-01-26T04:25:42;101961.0;;;22.92;30.33
48530;BME280;34927;37.302;-121.982;2023-01-26T04:26:47;101961.0;;;23.29;29.83
48530;BME280;34927;37.302;-121.982;2023-01-26T04:27:52;101958.0;;;23.54;29.44
48530;BME280;34927;37.302;-121.982;2023-01-26T04:28:57;101959.0;;;23.81;29.00
48530;BME280;34927;37.302;-121.982;2023-01-26T04:30:03;101959.0;;;23.90;28.72
48530;BME280;34927;37.302;-121.982;2023-01-26T04:31:07;101957.0;;;23.85;28.77
48530;BME280;34927;37.302;-121.982;2023-01-26T04:32:12;101957.0;;;23.75;28.94
48530;BME280;34927;37.302;-121.982;2023-01-26T04:33:16;101964.0;;;23.69;28.99
48530;BME280;34927;37.302;-121.982;2023-01-26T04:34:22;101963.0;;;23.51;29.21
48530;BME280;34927;37.302;-121.982;2023-01-26T04:35:26;101962.0;;;23.36;29.38
48530;BME280;34927;37.302;-121.982;2023-01-26T04:36:32;101964.0;;;23.23;29.49
48530;BME280;34927;37.302;-121.982;2023-01-26T04:37:37;101962.0;;;23.08;29.63
48530;BME280;34927;37.302;-121.982;2023-01-26T04:38:41;101968.0;;;22.93;29.79
48530;BME280;34927;37.302;-121.982;2023-01-26T04:39:47;101969.0;;;22.82;29.88
48530;BME280;34927;37.302;-121.982;2023-01-26T04:40:53;101967.0;;;22.76;30.04
48530;BME280;34927;37.302;-121.982;2023-01-26T04:41:56;101968.0;;;22.62;30.12
48530;BME280;34927;37.302;-121.982;2023-01-26T04:43:02;101968.0;;;22.58;30.20
48530;BME280;34927;37.302;-121.982;2023-01-26T04:44:06;101971.0;;;22.52;30.29
48530;BME280;34927;37.302;-121.982;2023-01-26T04:45:12;101968.0;;;22.47;30.38
48530;BME280;34927;37.302;-121.982;2023-01-26T04:46:16;101971.0;;;22.32;30.59
48530;BME280;34927;37.302;-121.982;2023-01-26T04:47:22;101973.0;;;22.18;30.78
48530;BME280;34927;37.302;-121.982;2023-01-26T04:48:27;101973.0;;;22.34;30.61
48530;BME280;34927;37.302;-121.982;2023-01-26T04:49:31;101970.0;;;22.61;30.39
48530;BME280;34927;37.302;-121.982;2023-01-26T04:50:37;101972.0;;;22.92;30.06
48530;BME280;34927;37.302;-121.982;2023-01-26T04:51:42;101975.0;;;23.18;29.75
48530;BME280;34927;37.302;-121.982;2023-01-26T04:52:46;101974.0;;;23.51;29.37
48530;BME280;34927;37.302;-121.982;2023-01-26T04:53:52;101975.0;;;23.76;28.98
48530;BME280;34927;37.302;-121.982;2023-01-26T04:54:57;101980.0;;;23.96;28.67
48530;BME280;34927;37.302;-121.982;2023-01-26T04:56:02;101980.0;;;23.86;28.73
48530;BME280;34927;37.302;-121.982;2023-01-26T04:57:07;101982.0;;;23.87;28.68
48530;BME280;34927;37.302;-121.982;2023-01-26T04:58:11;101978.0;;;23.62;29.03
48530;BME280;34927;37.302;-121.982;2023-01-26T04:59:17;101973.0;;;23.44;29.20
48530;BME280;34927;37.302;-121.982;2023-01-26T05:00:22;101979.0;;;23.34;29.41
48530;BME280;34927;37.302;-121.982;2023-01-26T05:01:27;101982.0;;;23.31;29.36
48530;BME280;34927;37.302;-121.982;2023-01-26T05:02:32;101983.0;;;23.14;29.60
48530;BME280;34927;37.302;-121.982;2023-01-26T05:03:36;101981.0;;;23.07;29.53
48530;BME280;34927;37.302;-121.982;2023-01-26T05:04:41;101982.0;;;22.87;29.73
48530;BME280;34927;37.302;-121.982;2023-01-26T05:05:49;101987.0;;;22.85;29.85
48530;BME280;34927;37.302;-121.982;2023-01-26T05:06:52;101983.0;;;22.94;29.79
48530;BME280;34927;37.302;-121.982;2023-01-26T05:07:57;101978.0;;;22.88;29.91
48530;BME280;34927;37.302;-121.982;2023-01-26T05:09:01;101980.0;;;22.88;30.01
48530;BME280;34927;37.302;-121.982;2023-01-26T05:10:08;101977.0;;;22.80;30.22
48530;BME280;34927;37.302;-121.982;2023-01-26T05:11:12;101977.0;;;22.84;30.15
48530;BME280;34927;37.302;-121.982;2023-01-26T05:12:17;101981.0;;;22.82;30.39
48530;BME280;34927;37.302;-121.982;2023-01-26T05:13:21;101980.0;;;22.83;30.70
48530;BME280;34927;37.302;-121.982;2023-01-26T05:14:26;101980.0;;;22.82;30.94
48530;BME280;34927;37.302;-121.982;2023-01-26T05:15:31;101978.0;;;22.70;31.34
48530;BME280;34927;37.302;-121.982;2023-01-26T05:16:37;101976.0;;;22.76;31.53
48530;BME280;34927;37.302;-121.982;2023-01-26T05:17:41;101976.0;;;22.75;31.35
48530;BME280;34927;37.302;-121.982;2023-01-26T05:18:47;101976.0;;;22.69;31.76
48530;BME280;34927;37.302;-121.982;2023-01-26T05:19:51;101978.0;;;22.67;31.70
48530;BME280;34927;37.302;-121.982;2023-01-26T05:20:57;101977.0;;;22.66;31.66
48530;BME280;34927;37.302;-121.982;2023-01-26T05:22:01;101977.0;;;22.55;31.97
48530;BME280;34927;37.302;-121.982;2023-01-26T05:23:07;101979.0;;;22.54;31.73
48530;BME280;34927;37.302;-121.982;2023-01-26T05:24:12;101982.0;;;22.47;32.10
48530;BME280;34927;37.302;-121.982;2023-01-26T05:25:17;101982.0;;;22.52;31.90
48530;BME280;34927;37.302;-121.982;2023-01-26T05:26:22;101982.0;;;22.41;32.02
48530;BME280;34927;37.302;-121.982;2023-01-26T05:27:26;101982.0;;;22.39;32.32
48530;BME280;34927;37.302;-121.982;2023-01-26T05:28:33;101982.0;;;22.50;32.68
48530;BME280;34927;37.302;-121.982;2023-01-26T05:29:37;101981.0;;;22.75;32.49
48530;BME280;34927;37.302;-121.982;2023-01-26T05:30:41;101985.0;;;23.02;32.05
48530;BME280;34927;37.302;-121.982;2023-01-26T05:31:47;101988.0;;;23.29;31.74
48530;BME280;34927;37.302;-121.982;2023-01-26T05:32:53;101984.0;;;23.52;31.43
48530;BME280;34927;37.302;-121.982;2023-01-26T05:33:57;101986.0;;;23.54;31.54
48530;BME280;34927;37.302;-121.982;2023-01-26T05:35:02;101987.0;;;23.44;31.89
48530;BME280;34927;37.302;-121.982;2023-01-26T05:36:07;101985.0;;;23.22;32.63